sensor_id;sensor_type;location;lat;lon;timestamp;temperature;humidity
46364;DHT22;32071;49.036;9.344;2023-02-15T00:01:10;-1.50;99.90
46364;DHT22;32071;49.036;9.344;2023-02-15T00:03:36;-1.60;99.90
46364;DHT22;32071;49.036;9.344;2023-02-15T00:06:03;-1.60;99.90
46364;DHT22;32071;49.036;9.344;2023-02-15T00:08:29;-1.50;99.90
46364;DHT22;32071;49.036;9.344;2023-02-15T00:11:09;-1.50;99.90
46364;DHT22;32071;49.036;9.344;2023-02-15T00:13:35;-1.40;99.90
46364;DHT22;32071;49.036;9.344;2023-02-15T00:16:12;-1.50;99.90
46364;DHT22;32071;49.036;9.344;2023-02-15T00:18:38;-1.40;99.90
46364;DHT22;32071;49.036;9.344;2023-02-15T00:21:09;-1.40;99.90
46364;DHT22;32071;49.036;9.344;2023-02-15T00:23:35;-1.40;99.90
46364;DHT22;32071;49.036;9.344;2023-02-15T00:26:06;-1.40;99.90
46364;DHT22;32071;49.036;9.344;2023-02-15T00:28:33;-1.50;99.90
46364;DHT22;32071;49.036;9.344;2023-02-15T00:31:09;-1.50;99.90
46364;DHT22;32071;49.036;9.344;2023-02-15T00:33:36;-1.50;99.90
46364;DHT22;32071;49.036;9.344;2023-02-15T00:36:02;-1.60;99.90
46364;DHT22;32071;49.036;9.344;2023-02-15T00:38:30;-1.60;99.90
46364;DHT22;32071;49.036;9.344;2023-02-15T00:40:57;-1.70;99.90
46364;DHT22;32071;49.036;9.344;2023-02-15T00:43:24;-1.70;99.90
46364;DHT22;32071;49.036;9.344;2023-02-15T00:45:49;-1.70;99.90
46364;DHT22;32071;49.036;9.344;2023-02-15T00:48:15;-1.70;99.90
46364;DHT22;32071;49.036;9.344;2023-02-15T00:50:41;-1.80;99.90
46364;DHT22;32071;49.036;9.344;2023-02-15T00:53:07;-1.80;99.90
46364;DHT22;32071;49.036;9.344;2023-02-15T00:55:32;-1.90;99.90
46364;DHT22;32071;49.036;9.344;2023-02-15T00:57:58;-1.90;99.90
46364;DHT22;32071;49.036;9.344;2023-02-15T01:00:24;-1.90;99.90
46364;DHT22;32071;49.036;9.344;2023-02-15T01:02:49;-1.90;99.90
46364;DHT22;32071;49.036;9.344;2023-02-15T01:05:15;-1.90;99.90
46364;DHT22;32071;49.036;9.344;2023-02-15T01:07:41;-1.90;99.90
46364;DHT22;32071;49.036;9.344;2023-02-15T01:10:07;-2.00;99.90
46364;DHT22;32071;49.036;9.344;2023-02-15T01:12:33;-2.00;99.90
46364;DHT22;32071;49.036;9.344;2023-02-15T01:14:59;-2.00;99.90
46364;DHT22;32071;49.036;9.344;2023-02-15T01:17:24;-2.00;99.90
46364;DHT22;32071;49.036;9.344;2023-02-15T01:19:50;-2.00;99.90
46364;DHT22;32071;49.036;9.344;2023-02-15T01:22:17;-2.00;99.90
46364;DHT22;32071;49.036;9.344;2023-02-15T01:24:42;-2.00;99.90
46364;DHT22;32071;49.036;9.344;2023-02-15T01:27:08;-2.10;99.90
46364;DHT22;32071;49.036;9.344;2023-02-15T01:29:33;-2.00;99.90
46364;DHT22;32071;49.036;9.344;2023-02-15T01:31:59;-2.00;99.90
46364;DHT22;32071;49.036;9.344;2023-02-15T01:34:25;-2.00;99.90
46364;DHT22;32071;49.036;9.344;2023-02-15T01:36:50;-1.90;99.90
46364;DHT22;32071;49.036;9.344;2023-02-15T01:39:16;-1.90;99.90
46364;DHT22;32071;49.036;9.344;2023-02-15T01:41:41;-1.90;99.90
46364;DHT22;32071;49.036;9.344;2023-02-15T01:47:13;-2.00;99.90
46364;DHT22;32071;49.036;9.344;2023-02-15T01:49:44;-2.00;99.90
46364;DHT22;32071;49.036;9.344;2023-02-15T01:52:15;-2.00;99.90
46364;DHT22;32071;49.036;9.344;2023-02-15T01:54:45;-2.00;99.90
46364;DHT22;32071;49.036;9.344;2023-02-15T01:57:16;-2.00;99.90
46364;DHT22;32071;49.036;9.344;2023-02-15T01:59:46;-2.00;99.90
46364;DHT22;32071;49.036;9.344;2023-02-15T02:02:13;-1.90;99.90
46364;DHT22;32071;49.036;9.344;2023-02-15T02:07:09;-1.80;99.90
46364;DHT22;32071;49.036;9.344;2023-02-15T02:09:38;-1.80;99.90
46364;DHT22;32071;49.036;9.344;2023-02-15T02:12:04;-1.80;99.90
46364;DHT22;32071;49.036;9.344;2023-02-15T02:14:29;-1.80;99.90
46364;DHT22;32071;49.036;9.344;2023-02-15T02:17:03;-1.80;99.90
46364;DHT22;32071;49.036;9.344;2023-02-15T02:22:37;-1.70;99.90
46364;DHT22;32071;49.036;9.344;2023-02-15T02:28:41;-1.70;99.90
46364;DHT22;32071;49.036;9.344;2023-02-15T02:34:16;-1.70;99.90
46364;DHT22;32071;49.036;9.344;2023-02-15T02:40:05;-1.70;99.90
46364;DHT22;32071;49.036;9.344;2023-02-15T02:42:49;-1.80;99.90
46364;DHT22;32071;49.036;9.344;2023-02-15T02:45:35;-1.80;99.90
46364;DHT22;32071;49.036;9.344;2023-02-15T02:48:09;-1.80;99.90
46364;DHT22;32071;49.036;9.344;2023-02-15T02:50:39;-1.80;99.90
46364;DHT22;32071;49.036;9.344;2023-02-15T02:53:04;-1.80;99.90
46364;DHT22;32071;49.036;9.344;2023-02-15T02:55:46;-1.80;99.90
46364;DHT22;32071;49.036;9.344;2023-02-15T03:01:19;-1.80;99.90
46364;DHT22;32071;49.036;9.344;2023-02-15T03:03:52;-1.70;99.90
46364;DHT22;32071;49.036;9.344;2023-02-15T03:06:26;-1.70;99.90
46364;DHT22;32071;49.036;9.344;2023-02-15T03:08:58;-1.80;99.90
46364;DHT22;32071;49.036;9.344;2023-02-15T03:11:26;-1.70;99.90
46364;DHT22;32071;49.036;9.344;2023-02-15T03:13:52;-1.70;99.90
46364;DHT22;32071;49.036;9.344;2023-02-15T03:16:18;-1.70;99.90
46364;DHT22;32071;49.036;9.344;2023-02-15T03:18:55;-1.70;99.90
46364;DHT22;32071;49.036;9.344;2023-02-15T03:21:30;-1.70;99.90
46364;DHT22;32071;49.036;9.344;2023-02-15T03:24:10;-1.70;99.90
46364;DHT22;32071;49.036;9.344;2023-02-15T03:26:39;-1.70;99.90
46364;DHT22;32071;49.036;9.344;2023-02-15T03:29:06;-1.70;99.90
46364;DHT22;32071;49.036;9.344;2023-02-15T03:31:37;-1.70;99.90
46364;DHT22;32071;49.036;9.344;2023-02-15T03:34:07;-1.70;99.90
46364;DHT22;32071;49.036;9.344;2023-02-15T03:42:49;-1.60;99.90
46364;DHT22;32071;49.036;9.344;2023-02-15T03:45:24;-1.50;99.90
46364;DHT22;32071;49.036;9.344;2023-02-15T03:47:52;-1.40;99.90
46364;DHT22;32071;49.036;9.344;2023-02-15T03:50:22;-1.40;99.90
46364;DHT22;32071;49.036;9.344;2023-02-15T03:53:11;-1.50;99.90
46364;DHT22;32071;49.036;9.344;2023-02-15T03:55:38;-1.50;99.90
46364;DHT22;32071;49.036;9.344;2023-02-15T03:58:04;-1.50;99.90
46364;DHT22;32071;49.036;9.344;2023-02-15T04:00:57;-1.60;99.90
46364;DHT22;32071;49.036;9.344;2023-02-15T04:03:56;-1.60;99.90
46364;DHT22;32071;49.036;9.344;2023-02-15T04:06:23;-1.50;99.90
46364;DHT22;32071;49.036;9.344;2023-02-15T04:08:48;-1.50;99.90
46364;DHT22;32071;49.036;9.344;2023-02-15T04:11:33;-1.60;99.90
46364;DHT22;32071;49.036;9.344;2023-02-15T04:13:59;-1.50;99.90
46364;DHT22;32071;49.036;9.344;2023-02-15T04:16:44;-1.50;99.90
46364;DHT22;32071;49.036;9.344;2023-02-15T04:19:10;-1.60;99.90
46364;DHT22;32071;49.036;9.344;2023-02-15T04:21:54;-1.60;99.90
46364;DHT22;32071;49.036;9.344;2023-02-15T04:24:38;-1.70;99.90
46364;DHT22;32071;49.036;9.344;2023-02-15T04:27:22;-1.70;99.90
46364;DHT22;32071;49.036;9.344;2023-02-15T04:29:48;-1.70;99.90
46364;DHT22;32071;49.036;9.344;2023-02-15T04:32:15;-1.70;99.90
46364;DHT22;32071;49.036;9.344;2023-02-15T04:34:40;-1.70;99.90
46364;DHT22;32071;49.036;9.344;2023-02-15T04:37:06;-1.70;99.90
46364;DHT22;32071;49.036;9.344;2023-02-15T04:39:31;-1.60;99.90
46364;DHT22;32071;49.036;9.344;2023-02-15T04:41:57;-1.60;99.90
46364;DHT22;32071;49.036;9.344;2023-02-15T04:44:23;-1.60;99.90
46364;DHT22;32071;49.036;9.344;2023-02-15T04:46:48;-1.60;99.90
46364;DHT22;32071;49.036;9.344;2023-02-15T04:49:14;-1.60;99.90
46364;DHT22;32071;49.036;9.344;2023-02-15T04:51:39;-1.60;99.90
46364;DHT22;32071;49.036;9.344;2023-02-15T04:54:05;-1.70;99.90
46364;DHT22;32071;49.036;9.344;2023-02-15T04:56:31;-1.80;99.90
46364;DHT22;32071;49.036;9.344;2023-02-15T04:58:58;-1.80;99.90
46364;DHT22;32071;49.036;9.344;2023-02-15T05:01:23;-1.80;99.90
46364;DHT22;32071;49.036;9.344;2023-02-15T05:03:49;-1.80;99.90
46364;DHT22;32071;49.036;9.344;2023-02-15T05:06:14;-1.70;99.90
46364;DHT22;32071;49.036;9.344;2023-02-15T05:08:40;-1.70;99.90
46364;DHT22;32071;49.036;9.344;2023-02-15T05:11:05;-1.80;99.90
46364;DHT22;32071;49.036;9.344;2023-02-15T05:13:31;-1.80;99.90
46364;DHT22;32071;49.036;9.344;2023-02-15T05:15:57;-1.80;99.90
46364;DHT22;32071;49.036;9.344;2023-02-15T05:18:22;-1.80;99.90
46364;DHT22;32071;49.036;9.344;2023-02-15T05:20:48;-1.80;99.90
46364;DHT22;32071;49.036;9.344;2023-02-15T05:23:14;-1.80;99.90
46364;DHT22;32071;49.036;9.344;2023-02-15T05:25:40;-1.90;99.90
46364;DHT22;32071;49.036;9.344;2023-02-15T05:28:26;-2.00;99.90
46364;DHT22;32071;49.036;9.344;2023-02-15T05:31:16;-2.00;99.90
46364;DHT22;32071;49.036;9.344;2023-02-15T05:33:42;-2.00;99.90
46364;DHT22;32071;49.036;9.344;2023-02-15T05:36:09;-1.90;99.90
46364;DHT22;32071;49.036;9.344;2023-02-15T05:38:35;-1.90;99.90
46364;DHT22;32071;49.036;9.344;2023-02-15T05:41:08;-1.90;99.90
46364;DHT22;32071;49.036;9.344;2023-02-15T05:43:35;-1.90;99.90
46364;DHT22;32071;49.036;9.344;2023-02-15T05:46:01;-1.90;99.90
46364;DHT22;32071;49.036;9.344;2023-02-15T05:48:27;-1.90;99.90
46364;DHT22;32071;49.036;9.344;2023-02-15T05:53:26;-1.80;99.90
46364;DHT22;32071;49.036;9.344;2023-02-15T05:55:52;-1.80;99.90
46364;DHT22;32071;49.036;9.344;2023-02-15T05:58:19;-1.80;99.90
46364;DHT22;32071;49.036;9.344;2023-02-15T06:00:45;-1.90;99.90
46364;DHT22;32071;49.036;9.344;2023-02-15T06:03:10;-1.90;99.90
46364;DHT22;32071;49.036;9.344;2023-02-15T06:05:36;-1.90;99.90
46364;DHT22;32071;49.036;9.344;2023-02-15T06:08:01;-2.00;99.90
46364;DHT22;32071;49.036;9.344;2023-02-15T06:10:27;-2.00;99.90
46364;DHT22;32071;49.036;9.344;2023-02-15T06:12:52;-1.90;99.90
46364;DHT22;32071;49.036;9.344;2023-02-15T06:15:18;-1.90;99.90
46364;DHT22;32071;49.036;9.344;2023-02-15T06:17:43;-2.00;99.90
46364;DHT22;32071;49.036;9.344;2023-02-15T06:20:10;-2.00;99.90
46364;DHT22;32071;49.036;9.344;2023-02-15T06:22:35;-2.20;99.90
46364;DHT22;32071;49.036;9.344;2023-02-15T06:25:01;-2.30;99.90
46364;DHT22;32071;49.036;9.344;2023-02-15T06:27:27;-2.40;99.90
46364;DHT22;32071;49.036;9.344;2023-02-15T06:29:52;-2.50;99.90
46364;DHT22;32071;49.036;9.344;2023-02-15T06:32:18;-2.50;99.90
46364;DHT22;32071;49.036;9.344;2023-02-15T06:34:43;-2.60;99.90
46364;DHT22;32071;49.036;9.344;2023-02-15T06:37:09;-2.60;99.90
46364;DHT22;32071;49.036;9.344;2023-02-15T06:39:34;-2.60;99.90
46364;DHT22;32071;49.036;9.344;2023-02-15T06:42:00;-2.60;99.90
46364;DHT22;32071;49.036;9.344;2023-02-15T06:44:26;-2.60;99.90
46364;DHT22;32071;49.036;9.344;2023-02-15T06:46:51;-2.50;99.90
46364;DHT22;32071;49.036;9.344;2023-02-15T06:49:17;-2.50;99.90
46364;DHT22;32071;49.036;9.344;2023-02-15T06:51:42;-2.50;99.90
46364;DHT22;32071;49.036;9.344;2023-02-15T06:54:08;-2.50;99.90
46364;DHT22;32071;49.036;9.344;2023-02-15T06:56:33;-2.40;99.90
46364;DHT22;32071;49.036;9.344;2023-02-15T06:58:59;-2.40;99.90
46364;DHT22;32071;49.036;9.344;2023-02-15T07:01:24;-2.40;99.90
46364;DHT22;32071;49.036;9.344;2023-02-15T07:03:50;-2.40;99.90
46364;DHT22;32071;49.036;9.344;2023-02-15T07:06:16;-2.30;99.90
46364;DHT22;32071;49.036;9.344;2023-02-15T07:08:41;-2.30;99.90
46364;DHT22;32071;49.036;9.344;2023-02-15T07:11:07;-2.30;99.90
46364;DHT22;32071;49.036;9.344;2023-02-15T07:13:51;-2.40;99.90
46364;DHT22;32071;49.036;9.344;2023-02-15T07:16:18;-2.30;99.90
46364;DHT22;32071;49.036;9.344;2023-02-15T07:18:43;-2.20;99.90
46364;DHT22;32071;49.036;9.344;2023-02-15T07:21:09;-2.20;99.90
46364;DHT22;32071;49.036;9.344;2023-02-15T07:23:38;-2.20;99.90
46364;DHT22;32071;49.036;9.344;2023-02-15T07:26:05;-2.10;99.90
46364;DHT22;32071;49.036;9.344;2023-02-15T07:28:31;-2.10;99.90
46364;DHT22;32071;49.036;9.344;2023-02-15T07:30:57;-2.00;99.90
46364;DHT22;32071;49.036;9.344;2023-02-15T07:33:23;-1.90;99.90
46364;DHT22;32071;49.036;9.344;2023-02-15T07:35:56;-1.90;99.90
46364;DHT22;32071;49.036;9.344;2023-02-15T07:38:27;-1.80;99.90
46364;DHT22;32071;49.036;9.344;2023-02-15T07:40:58;-1.80;99.90
46364;DHT22;32071;49.036;9.344;2023-02-15T07:43:24;-1.70;99.90
46364;DHT22;32071;49.036;9.344;2023-02-15T07:45:50;-1.60;99.90
46364;DHT22;32071;49.036;9.344;2023-02-15T07:48:15;-1.50;99.90
46364;DHT22;32071;49.036;9.344;2023-02-15T07:50:41;-1.60;99.90
46364;DHT22;32071;49.036;9.344;2023-02-15T07:53:06;-1.70;99.90
46364;DHT22;32071;49.036;9.344;2023-02-15T07:55:32;-1.60;99.90
46364;DHT22;32071;49.036;9.344;2023-02-15T07:57:58;-1.60;99.90
46364;DHT22;32071;49.036;9.344;2023-02-15T08:00:23;-1.50;99.90
46364;DHT22;32071;49.036;9.344;2023-02-15T08:02:54;-1.40;99.90
46364;DHT22;32071;49.036;9.344;2023-02-15T08:05:43;-1.40;99.90
46364;DHT22;32071;49.036;9.344;2023-02-15T08:08:10;-1.50;99.90
46364;DHT22;32071;49.036;9.344;2023-02-15T08:11:06;-1.40;99.90
46364;DHT22;32071;49.036;9.344;2023-02-15T08:13:55;-1.40;99.90
46364;DHT22;32071;49.036;9.344;2023-02-15T08:19:31;-1.20;99.90
46364;DHT22;32071;49.036;9.344;2023-02-15T08:21:59;-1.20;99.90
46364;DHT22;32071;49.036;9.344;2023-02-15T08:24:30;-1.30;99.90
46364;DHT22;32071;49.036;9.344;2023-02-15T08:26:57;-1.20;99.90
46364;DHT22;32071;49.036;9.344;2023-02-15T08:29:25;-1.20;99.90
46364;DHT22;32071;49.036;9.344;2023-02-15T08:31:57;-1.10;99.90
46364;DHT22;32071;49.036;9.344;2023-02-15T08:34:24;-1.10;99.90
46364;DHT22;32071;49.036;9.344;2023-02-15T08:36:50;-1.10;99.90
46364;DHT22;32071;49.036;9.344;2023-02-15T08:39:16;-1.10;99.90
46364;DHT22;32071;49.036;9.344;2023-02-15T08:41:44;-0.90;99.90
46364;DHT22;32071;49.036;9.344;2023-02-15T08:44:10;-0.80;99.90
46364;DHT22;32071;49.036;9.344;2023-02-15T08:46:40;-0.70;99.90
46364;DHT22;32071;49.036;9.344;2023-02-15T08:49:07;-0.60;99.90
46364;DHT22;32071;49.036;9.344;2023-02-15T08:51:35;-0.50;99.90
46364;DHT22;32071;49.036;9.344;2023-02-15T08:54:04;-0.50;99.90
46364;DHT22;32071;49.036;9.344;2023-02-15T08:56:33;-0.50;99.90
46364;DHT22;32071;49.036;9.344;2023-02-15T08:58:59;-0.50;99.90
46364;DHT22;32071;49.036;9.344;2023-02-15T09:01:28;-0.50;99.90
46364;DHT22;32071;49.036;9.344;2023-02-15T09:04:02;-0.40;99.90
46364;DHT22;32071;49.036;9.344;2023-02-15T09:06:29;-0.30;99.90
46364;DHT22;32071;49.036;9.344;2023-02-15T09:08:56;-0.10;99.90
46364;DHT22;32071;49.036;9.344;2023-02-15T09:11:29;0.00;99.90
46364;DHT22;32071;49.036;9.344;2023-02-15T09:13:56;0.10;99.90
46364;DHT22;32071;49.036;9.344;2023-02-15T09:16:23;0.20;99.90
46364;DHT22;32071;49.036;9.344;2023-02-15T09:18:50;0.30;99.90
46364;DHT22;32071;49.036;9.344;2023-02-15T09:21:21;0.40;99.90
46364;DHT22;32071;49.036;9.344;2023-02-15T09:23:49;0.30;99.90
46364;DHT22;32071;49.036;9.344;2023-02-15T09:26:17;0.40;99.90
46364;DHT22;32071;49.036;9.344;2023-02-15T09:28:43;0.40;99.90
46364;DHT22;32071;49.036;9.344;2023-02-15T09:31:17;0.50;99.90
46364;DHT22;32071;49.036;9.344;2023-02-15T09:33:44;0.50;99.90
46364;DHT22;32071;49.036;9.344;2023-02-15T09:36:25;0.70;99.90
46364;DHT22;32071;49.036;9.344;2023-02-15T09:53:00;0.80;99.90
46364;DHT22;32071;49.036;9.344;2023-02-15T09:55:43;0.90;99.90
46364;DHT22;32071;49.036;9.344;2023-02-15T10:03:34;0.90;99.90
46364;DHT22;32071;49.036;9.344;2023-02-15T10:08:59;1.00;99.90
46364;DHT22;32071;49.036;9.344;2023-02-15T10:11:54;1.20;99.90
46364;DHT22;32071;49.036;9.344;2023-02-15T10:28:09;1.60;99.90
46364;DHT22;32071;49.036;9.344;2023-02-15T10:30:48;1.60;99.90
46364;DHT22;32071;49.036;9.344;2023-02-15T10:33:38;1.60;99.90
46364;DHT22;32071;49.036;9.344;2023-02-15T10:39:07;1.40;99.90
46364;DHT22;32071;49.036;9.344;2023-02-15T10:44:55;1.30;99.90
46364;DHT22;32071;49.036;9.344;2023-02-15T10:50:36;1.80;99.90
46364;DHT22;32071;49.036;9.344;2023-02-15T10:53:23;1.90;99.90
46364;DHT22;32071;49.036;9.344;2023-02-15T10:56:24;2.10;99.90
46364;DHT22;32071;49.036;9.344;2023-02-15T10:59:23;2.50;99.90
46364;DHT22;32071;49.036;9.344;2023-02-15T11:02:04;2.60;99.90
46364;DHT22;32071;49.036;9.344;2023-02-15T11:07:41;2.60;99.90
46364;DHT22;32071;49.036;9.344;2023-02-15T11:13:09;2.60;99.90
46364;DHT22;32071;49.036;9.344;2023-02-15T11:15:41;2.80;99.90
46364;DHT22;32071;49.036;9.344;2023-02-15T11:18:35;2.80;99.90
46364;DHT22;32071;49.036;9.344;2023-02-15T11:21:07;3.10;99.90
46364;DHT22;32071;49.036;9.344;2023-02-15T11:23:37;3.30;99.90
46364;DHT22;32071;49.036;9.344;2023-02-15T11:26:13;3.40;99.90
46364;DHT22;32071;49.036;9.344;2023-02-15T11:28:45;3.30;99.90
46364;DHT22;32071;49.036;9.344;2023-02-15T11:31:21;3.30;99.90
46364;DHT22;32071;49.036;9.344;2023-02-15T11:33:59;3.30;99.90
46364;DHT22;32071;49.036;9.344;2023-02-15T11:36:28;3.20;99.90
46364;DHT22;32071;49.036;9.344;2023-02-15T11:39:02;3.20;99.90
46364;DHT22;32071;49.036;9.344;2023-02-15T11:41:32;3.20;99.90
46364;DHT22;32071;49.036;9.344;2023-02-15T11:46:46;3.30;99.90
46364;DHT22;32071;49.036;9.344;2023-02-15T11:49:27;3.40;99.90
46364;DHT22;32071;49.036;9.344;2023-02-15T11:51:55;3.60;99.90
46364;DHT22;32071;49.036;9.344;2023-02-15T11:54:26;3.70;99.90
46364;DHT22;32071;49.036;9.344;2023-02-15T11:56:53;3.70;99.90
46364;DHT22;32071;49.036;9.344;2023-02-15T11:59:27;3.90;99.90
46364;DHT22;32071;49.036;9.344;2023-02-15T12:01:53;4.00;99.90
46364;DHT22;32071;49.036;9.344;2023-02-15T12:04:40;4.10;99.90
46364;DHT22;32071;49.036;9.344;2023-02-15T12:07:17;4.20;99.90
46364;DHT22;32071;49.036;9.344;2023-02-15T12:09:55;4.40;99.90
46364;DHT22;32071;49.036;9.344;2023-02-15T12:12:32;4.60;99.90
46364;DHT22;32071;49.036;9.344;2023-02-15T12:15:00;4.60;99.90
46364;DHT22;32071;49.036;9.344;2023-02-15T12:17:29;4.80;99.90
46364;DHT22;32071;49.036;9.344;2023-02-15T12:20:00;4.90;99.90
46364;DHT22;32071;49.036;9.344;2023-02-15T12:22:33;5.00;99.90
46364;DHT22;32071;49.036;9.344;2023-02-15T12:25:01;5.20;99.90
46364;DHT22;32071;49.036;9.344;2023-02-15T12:27:35;5.30;99.90
46364;DHT22;32071;49.036;9.344;2023-02-15T12:30:07;5.40;99.90
46364;DHT22;32071;49.036;9.344;2023-02-15T12:32:49;5.50;99.90
46364;DHT22;32071;49.036;9.344;2023-02-15T12:35:31;5.60;99.90
46364;DHT22;32071;49.036;9.344;2023-02-15T12:38:04;5.70;99.90
46364;DHT22;32071;49.036;9.344;2023-02-15T12:40:32;5.80;99.90
46364;DHT22;32071;49.036;9.344;2023-02-15T12:42:59;5.90;99.90
46364;DHT22;32071;49.036;9.344;2023-02-15T12:45:30;6.00;99.90
46364;DHT22;32071;49.036;9.344;2023-02-15T12:48:18;6.10;99.90
46364;DHT22;32071;49.036;9.344;2023-02-15T12:50:51;6.20;99.90
46364;DHT22;32071;49.036;9.344;2023-02-15T12:53:30;6.30;99.90
46364;DHT22;32071;49.036;9.344;2023-02-15T12:55:58;6.30;99.90
46364;DHT22;32071;49.036;9.344;2023-02-15T12:58:28;6.30;99.90
46364;DHT22;32071;49.036;9.344;2023-02-15T13:01:18;6.40;99.90
46364;DHT22;32071;49.036;9.344;2023-02-15T13:06:18;6.70;99.90
46364;DHT22;32071;49.036;9.344;2023-02-15T13:08:52;6.80;99.90
46364;DHT22;32071;49.036;9.344;2023-02-15T13:11:29;6.90;99.90
46364;DHT22;32071;49.036;9.344;2023-02-15T13:14:01;6.90;99.90
46364;DHT22;32071;49.036;9.344;2023-02-15T13:16:34;7.00;99.90
46364;DHT22;32071;49.036;9.344;2023-02-15T13:19:17;7.00;99.90
46364;DHT22;32071;49.036;9.344;2023-02-15T13:21:46;7.10;99.90
46364;DHT22;32071;49.036;9.344;2023-02-15T13:24:29;7.20;99.90
46364;DHT22;32071;49.036;9.344;2023-02-15T13:26:57;7.30;99.90
46364;DHT22;32071;49.036;9.344;2023-02-15T13:29:28;7.30;99.90
46364;DHT22;32071;49.036;9.344;2023-02-15T13:31:57;7.40;99.90
46364;DHT22;32071;49.036;9.344;2023-02-15T13:34:31;7.40;99.90
46364;DHT22;32071;49.036;9.344;2023-02-15T13:37:12;7.40;99.90
46364;DHT22;32071;49.036;9.344;2023-02-15T13:39:48;7.50;99.90
46364;DHT22;32071;49.036;9.344;2023-02-15T13:44:58;7.60;99.90
46364;DHT22;32071;49.036;9.344;2023-02-15T13:47:55;7.70;99.90
46364;DHT22;32071;49.036;9.344;2023-02-15T13:53:23;7.80;99.90
46364;DHT22;32071;49.036;9.344;2023-02-15T14:01:38;8.00;99.90
46364;DHT22;32071;49.036;9.344;2023-02-15T14:07:12;8.00;99.90
46364;DHT22;32071;49.036;9.344;2023-02-15T14:15:26;8.10;99.90
46364;DHT22;32071;49.036;9.344;2023-02-15T14:20:41;8.20;99.90
46364;DHT22;32071;49.036;9.344;2023-02-15T14:28:37;8.40;99.90
46364;DHT22;32071;49.036;9.344;2023-02-15T14:31:06;8.40;99.90
46364;DHT22;32071;49.036;9.344;2023-02-15T14:33:36;8.40;99.90
46364;DHT22;32071;49.036;9.344;2023-02-15T14:36:05;8.40;99.90
46364;DHT22;32071;49.036;9.344;2023-02-15T14:41:39;8.50;99.90
46364;DHT22;32071;49.036;9.344;2023-02-15T14:44:15;8.50;99.90
46364;DHT22;32071;49.036;9.344;2023-02-15T14:49:17;8.50;99.90
46364;DHT22;32071;49.036;9.344;2023-02-15T14:57:26;8.50;99.90
46364;DHT22;32071;49.036;9.344;2023-02-15T14:59:40;8.50;99.90
46364;DHT22;32071;49.036;9.344;2023-02-15T15:04:39;8.50;99.90
46364;DHT22;32071;49.036;9.344;2023-02-15T15:07:27;8.50;99.90
46364;DHT22;32071;49.036;9.344;2023-02-15T15:12:44;8.50;99.90
46364;DHT22;32071;49.036;9.344;2023-02-15T15:18:07;8.40;99.90
46364;DHT22;32071;49.036;9.344;2023-02-15T15:20:50;8.40;99.90
46364;DHT22;32071;49.036;9.344;2023-02-15T15:28:07;8.20;99.90
46364;DHT22;32071;49.036;9.344;2023-02-15T15:33:25;8.10;99.90
46364;DHT22;32071;49.036;9.344;2023-02-15T15:36:19;8.10;99.90
46364;DHT22;32071;49.036;9.344;2023-02-15T15:50:29;7.80;99.90
46364;DHT22;32071;49.036;9.344;2023-02-15T15:52:59;7.70;99.90
46364;DHT22;32071;49.036;9.344;2023-02-15T15:55:28;7.60;99.90
46364;DHT22;32071;49.036;9.344;2023-02-15T15:58:04;7.50;99.90
46364;DHT22;32071;49.036;9.344;2023-02-15T16:03:20;7.40;99.90
46364;DHT22;32071;49.036;9.344;2023-02-15T16:05:46;7.30;99.90
46364;DHT22;32071;49.036;9.344;2023-02-15T16:08:13;7.20;99.90
46364;DHT22;32071;49.036;9.344;2023-02-15T16:10:40;7.10;99.90
46364;DHT22;32071;49.036;9.344;2023-02-15T16:13:06;7.00;99.90
46364;DHT22;32071;49.036;9.344;2023-02-15T16:15:42;6.90;99.90
46364;DHT22;32071;49.036;9.344;2023-02-15T16:18:15;6.70;99.90
46364;DHT22;32071;49.036;9.344;2023-02-15T16:20:58;6.30;99.90
46364;DHT22;32071;49.036;9.344;2023-02-15T16:28:52;5.60;99.90
46364;DHT22;32071;49.036;9.344;2023-02-15T16:31:19;5.30;99.90
46364;DHT22;32071;49.036;9.344;2023-02-15T16:33:45;5.10;99.90
46364;DHT22;32071;49.036;9.344;2023-02-15T16:36:28;4.90;99.90
46364;DHT22;32071;49.036;9.344;2023-02-15T16:41:24;4.60;99.90
46364;DHT22;32071;49.036;9.344;2023-02-15T16:43:51;4.40;99.90
46364;DHT22;32071;49.036;9.344;2023-02-15T16:46:32;4.20;99.90
46364;DHT22;32071;49.036;9.344;2023-02-15T16:49:03;4.10;99.90
46364;DHT22;32071;49.036;9.344;2023-02-15T16:51:33;3.90;99.90
46364;DHT22;32071;49.036;9.344;2023-02-15T16:54:07;3.80;99.90
46364;DHT22;32071;49.036;9.344;2023-02-15T16:56:33;3.60;99.90
46364;DHT22;32071;49.036;9.344;2023-02-15T16:59:00;3.50;99.90
46364;DHT22;32071;49.036;9.344;2023-02-15T17:01:28;3.30;99.90
46364;DHT22;32071;49.036;9.344;2023-02-15T17:04:28;3.20;99.90
46364;DHT22;32071;49.036;9.344;2023-02-15T17:07:16;3.10;99.90
46364;DHT22;32071;49.036;9.344;2023-02-15T17:09:56;3.00;99.90
46364;DHT22;32071;49.036;9.344;2023-02-15T17:12:44;2.80;99.90
46364;DHT22;32071;49.036;9.344;2023-02-15T17:15:29;2.70;99.90
46364;DHT22;32071;49.036;9.344;2023-02-15T17:18:20;2.60;99.90
46364;DHT22;32071;49.036;9.344;2023-02-15T17:20:49;2.50;99.90
46364;DHT22;32071;49.036;9.344;2023-02-15T17:23:38;2.50;99.90
46364;DHT22;32071;49.036;9.344;2023-02-15T17:26:36;2.50;99.90
46364;DHT22;32071;49.036;9.344;2023-02-15T17:29:22;2.50;99.90
46364;DHT22;32071;49.036;9.344;2023-02-15T17:31:50;2.50;99.90
46364;DHT22;32071;49.036;9.344;2023-02-15T17:34:49;2.50;99.90
46364;DHT22;32071;49.036;9.344;2023-02-15T17:40:31;2.30;99.90
46364;DHT22;32071;49.036;9.344;2023-02-15T17:42:58;2.30;99.90
46364;DHT22;32071;49.036;9.344;2023-02-15T17:45:30;2.20;99.90
46364;DHT22;32071;49.036;9.344;2023-02-15T17:47:56;2.20;99.90
46364;DHT22;32071;49.036;9.344;2023-02-15T17:50:26;2.20;99.90
46364;DHT22;32071;49.036;9.344;2023-02-15T17:52:53;2.20;99.90
46364;DHT22;32071;49.036;9.344;2023-02-15T17:55:22;2.10;99.90
46364;DHT22;32071;49.036;9.344;2023-02-15T17:58:00;2.10;99.90
46364;DHT22;32071;49.036;9.344;2023-02-15T18:00:27;2.00;99.90
46364;DHT22;32071;49.036;9.344;2023-02-15T18:03:11;1.90;99.90
46364;DHT22;32071;49.036;9.344;2023-02-15T18:05:56;1.90;99.90
46364;DHT22;32071;49.036;9.344;2023-02-15T18:08:40;1.90;99.90
46364;DHT22;32071;49.036;9.344;2023-02-15T18:11:24;1.80;99.90
46364;DHT22;32071;49.036;9.344;2023-02-15T18:14:09;1.80;99.90
46364;DHT22;32071;49.036;9.344;2023-02-15T18:16:39;1.80;99.90
46364;DHT22;32071;49.036;9.344;2023-02-15T18:19:14;1.70;99.90
46364;DHT22;32071;49.036;9.344;2023-02-15T18:21:41;1.60;99.90
46364;DHT22;32071;49.036;9.344;2023-02-15T18:24:14;1.60;99.90
46364;DHT22;32071;49.036;9.344;2023-02-15T18:26:40;1.60;99.90
46364;DHT22;32071;49.036;9.344;2023-02-15T18:29:05;1.60;99.90
46364;DHT22;32071;49.036;9.344;2023-02-15T18:31:31;1.60;99.90
46364;DHT22;32071;49.036;9.344;2023-02-15T18:33:58;1.60;99.90
46364;DHT22;32071;49.036;9.344;2023-02-15T18:36:31;1.60;99.90
46364;DHT22;32071;49.036;9.344;2023-02-15T18:38:58;1.60;99.90
46364;DHT22;32071;49.036;9.344;2023-02-15T18:41:24;1.60;99.90
46364;DHT22;32071;49.036;9.344;2023-02-15T18:43:51;1.50;99.90
46364;DHT22;32071;49.036;9.344;2023-02-15T18:46:18;1.50;99.90
46364;DHT22;32071;49.036;9.344;2023-02-15T18:48:44;1.50;99.90
46364;DHT22;32071;49.036;9.344;2023-02-15T18:51:17;1.40;99.90
46364;DHT22;32071;49.036;9.344;2023-02-15T18:53:44;1.40;99.90